Time;durP1;ratioP1;P1;durP2;ratioP2;P2;SDS_P1;SDS_P2;PMS_P1;PMS_P2;Temp;Humidity;BMP_temperature;BMP_pressure;BME280_temperature;BME280_humidity;BME280_pressure;Samples;Min_cycle;Max_cycle;Signal;HPM_P1;HPM_P2
2023/07/16 00:02:06;;;;;;;10.88;4.57;;;17.10;99.90;;;;;;6151961;23;20045;-80
2023/07/16 00:04:44;;;;;;;10.43;4.50;;;16.60;99.90;;;;;;6254324;22;20333;-81
2023/07/16 00:07:30;;;;;;;12.73;4.20;;;16.50;99.90;;;;;;6149645;23;20093;-80
2023/07/16 00:09:55;;;;;;;11.48;4.22;;;16.50;99.90;;;;;;6254394;22;20087;-80
2023/07/16 00:12:21;;;;;;;10.95;3.85;;;16.50;99.90;;;;;;6254628;22;20327;-80
2023/07/16 00:14:48;;;;;;;10.90;4.05;;;16.90;99.90;;;;;;6150191;23;20088;-80
2023/07/16 00:17:13;;;;;;;12.52;4.00;;;17.00;99.90;;;;;;6254507;22;20074;-80
2023/07/16 00:19:39;;;;;;;11.27;3.95;;;16.40;99.90;;;;;;6254244;22;20017;-80
2023/07/16 00:22:05;;;;;;;12.30;3.33;;;16.30;99.90;;;;;;6151012;23;20029;-80
2023/07/16 00:24:31;;;;;;;11.00;3.30;;;16.30;99.90;;;;;;6254347;22;20029;-80
2023/07/16 00:26:57;;;;;;;13.25;3.42;;;16.30;99.90;;;;;;6254991;22;20023;-80
2023/07/16 00:29:23;;;;;;;10.88;3.25;;;16.30;99.90;;;;;;6150699;23;20013;-80
2023/07/16 00:31:48;;;;;;;11.10;3.47;;;16.30;99.90;;;;;;6151613;22;20361;-80
2023/07/16 00:34:14;;;;;;;11.32;3.05;;;16.30;99.90;;;;;;6151966;22;20319;-80
2023/07/16 00:36:40;;;;;;;11.80;3.63;;;16.20;99.90;;;;;;6150700;23;20477;-80
2023/07/16 00:39:05;;;;;;;12.20;3.63;;;16.20;99.90;;;;;;6151703;23;20063;-80
2023/07/16 00:41:31;;;;;;;12.13;3.67;;;16.10;99.90;;;;;;6254110;22;20029;-80
2023/07/16 00:43:57;;;;;;;13.48;3.22;;;16.10;99.90;;;;;;6253375;22;20341;-80
2023/07/16 00:46:23;;;;;;;10.32;3.30;;;16.10;99.90;;;;;;6254708;22;20346;-80
2023/07/16 00:48:49;;;;;;;12.60;3.60;;;16.00;99.90;;;;;;6150513;23;20045;-80
2023/07/16 00:51:16;;;;;;;9.50;3.38;;;16.00;99.90;;;;;;6254479;22;20026;-80
2023/07/16 00:53:42;;;;;;;10.65;3.30;;;15.80;99.90;;;;;;6252993;22;20020;-80
2023/07/16 00:56:10;;;;;;;11.82;3.60;;;15.80;99.90;;;;;;6253533;22;20018;-80
2023/07/16 00:58:35;;;;;;;10.50;3.47;;;15.80;99.90;;;;;;6253964;22;20318;-80
2023/07/16 01:01:01;;;;;;;10.88;3.47;;;15.70;99.90;;;;;;6151301;23;20017;-80
2023/07/16 01:03:27;;;;;;;12.25;3.63;;;15.70;99.90;;;;;;6152651;22;20021;-80
2023/07/16 01:06:08;;;;;;;16.00;3.92;;;16.40;99.90;;;;;;6151441;23;20013;-80
2023/07/16 01:09:14;;;;;;;10.35;3.78;;;15.60;99.90;;;;;;6151371;23;20014;-80
2023/07/16 01:11:43;;;;;;;12.48;4.07;;;15.50;99.90;;;;;;6194354;22;20025;-80
2023/07/16 01:14:13;;;;;;;11.20;4.05;;;15.60;99.90;;;;;;6151429;23;20013;-80
2023/07/16 01:16:40;;;;;;;9.05;3.85;;;15.50;99.90;;;;;;6150853;23;20469;-80
2023/07/16 01:19:06;;;;;;;11.93;4.20;;;15.50;99.90;;;;;;6253203;22;20013;-80
2023/07/16 01:21:41;;;;;;;12.98;5.07;;;15.60;99.90;;;;;;6253196;22;20071;-80
2023/07/16 01:24:13;;;;;;;13.35;4.57;;;15.50;99.90;;;;;;6253163;22;20020;-80
2023/07/16 01:27:10;;;;;;;14.00;5.35;;;15.50;99.90;;;;;;6151071;23;20018;-80
2023/07/16 01:29:46;;;;;;;13.88;4.60;;;15.50;99.90;;;;;;6151441;23;20021;-80
2023/07/16 01:32:13;;;;;;;11.80;4.57;;;15.40;99.90;;;;;;6253365;22;20014;-80
2023/07/16 01:34:40;;;;;;;13.70;4.80;;;15.80;99.90;;;;;;6253758;22;20031;-80
2023/07/16 01:37:06;;;;;;;11.77;4.60;;;15.50;99.90;;;;;;6260368;22;20017;-80
2023/07/16 01:39:35;;;;;;;14.30;5.35;;;15.60;99.90;;;;;;6255933;22;20028;-80
2023/07/16 01:42:01;;;;;;;12.80;4.78;;;15.90;99.90;;;;;;6254376;22;20014;-80
2023/07/16 01:44:26;;;;;;;12.57;4.70;;;15.70;99.90;;;;;;6151135;23;20096;-80
2023/07/16 01:47:13;;;;;;;11.52;5.00;;;15.70;99.90;;;;;;6151228;23;20047;-80
2023/07/16 01:49:41;;;;;;;12.20;4.95;;;15.70;99.90;;;;;;6253830;22;20018;-81
2023/07/16 01:52:08;;;;;;;11.00;4.65;;;16.20;99.90;;;;;;6253555;22;20013;-80
2023/07/16 01:54:33;;;;;;;13.25;4.63;;;15.70;99.90;;;;;;6253732;22;20021;-80
2023/07/16 01:56:59;;;;;;;12.80;4.75;;;15.80;99.90;;;;;;6253737;22;20024;-80
2023/07/16 01:59:25;;;;;;;11.25;4.03;;;15.80;99.90;;;;;;6252148;22;20024;-80
2023/07/16 02:01:50;;;;;;;11.52;4.00;;;16.00;99.90;;;;;;6151269;22;20097;-80
2023/07/16 02:04:16;;;;;;;11.25;3.95;;;16.10;99.90;;;;;;6151050;23;20067;-80
2023/07/16 02:06:41;;;;;;;11.77;4.30;;;16.10;99.90;;;;;;6148683;23;20014;-80
2023/07/16 02:09:10;;;;;;;11.40;4.30;;;15.90;99.90;;;;;;6254128;22;20017;-80
2023/07/16 02:11:35;;;;;;;11.93;3.75;;;15.80;99.90;;;;;;6253445;22;20013;-80
2023/07/16 02:14:01;;;;;;;13.60;4.10;;;15.80;99.90;;;;;;6252816;22;20104;-80
2023/07/16 02:16:27;;;;;;;10.68;3.63;;;16.20;99.90;;;;;;6253828;22;20024;-81
2023/07/16 02:18:52;;;;;;;11.68;3.70;;;15.70;99.90;;;;;;6253048;22;20056;-81
2023/07/16 02:21:18;;;;;;;15.38;4.10;;;15.90;99.90;;;;;;6252736;22;20512;-80
2023/07/16 02:23:44;;;;;;;12.32;3.80;;;15.70;99.90;;;;;;6253062;22;20018;-81
2023/07/16 02:26:13;;;;;;;10.80;4.10;;;15.60;99.90;;;;;;6151660;23;20056;-81
2023/07/16 02:28:38;;;;;;;12.65;3.67;;;15.60;99.90;;;;;;6149848;23;20024;-80
2023/07/16 02:31:04;;;;;;;12.93;4.22;;;15.50;99.90;;;;;;6151296;22;20025;-80
2023/07/16 02:33:30;;;;;;;11.50;3.70;;;15.60;99.90;;;;;;6252886;22;20032;-80
2023/07/16 02:35:55;;;;;;;12.48;4.07;;;15.40;99.90;;;;;;6253025;22;20021;-81
2023/07/16 02:38:21;;;;;;;14.40;4.05;;;15.40;99.90;;;;;;6253455;22;20374;-80
2023/07/16 02:40:48;;;;;;;12.68;4.30;;;15.40;99.90;;;;;;6150787;23;20310;-81
2023/07/16 02:43:14;;;;;;;12.48;4.07;;;15.30;99.90;;;;;;6252951;22;20013;-81
2023/07/16 02:45:41;;;;;;;15.32;4.47;;;15.20;99.90;;;;;;6150453;23;20013;-80
2023/07/16 02:48:07;;;;;;;12.82;4.00;;;15.20;99.90;;;;;;6151283;23;20014;-81
2023/07/16 02:50:37;;;;;;;12.68;4.40;;;15.50;99.90;;;;;;6150023;23;20017;-80
2023/07/16 02:53:06;;;;;;;12.07;4.10;;;15.50;99.90;;;;;;6253352;22;20014;-81
2023/07/16 02:55:32;;;;;;;11.68;4.15;;;15.00;99.90;;;;;;6251913;22;20028;-80
2023/07/16 02:57:57;;;;;;;10.10;4.10;;;15.10;99.90;;;;;;6253200;22;20397;-80
2023/07/16 03:00:23;;;;;;;10.90;3.75;;;15.70;99.90;;;;;;6252448;22;20021;-81
2023/07/16 03:02:49;;;;;;;12.75;4.00;;;15.10;99.90;;;;;;6252332;22;20018;-81
2023/07/16 03:05:18;;;;;;;12.10;3.85;;;15.10;99.90;;;;;;6150602;23;20151;-80
2023/07/16 03:07:44;;;;;;;13.55;4.05;;;15.10;99.90;;;;;;6253627;22;20449;-81
2023/07/16 03:10:09;;;;;;;12.90;4.90;;;15.10;99.90;;;;;;6150047;23;20024;-81
2023/07/16 03:12:35;;;;;;;11.52;4.13;;;15.10;99.90;;;;;;6150618;23;20429;-80
2023/07/16 03:15:01;;;;;;;12.45;3.75;;;15.40;99.90;;;;;;6253436;22;20024;-80
2023/07/16 03:17:26;;;;;;;11.98;4.05;;;15.00;99.90;;;;;;6251964;22;20014;-80
2023/07/16 03:19:52;;;;;;;11.45;4.50;;;15.10;99.90;;;;;;6150345;23;20021;-80
2023/07/16 03:22:17;;;;;;;11.07;3.83;;;15.60;99.90;;;;;;6253255;22;20014;-80
2023/07/16 03:24:43;;;;;;;13.60;4.00;;;14.90;99.90;;;;;;6251500;22;20025;-80
2023/07/16 03:27:09;;;;;;;9.82;4.47;;;14.90;99.90;;;;;;6253068;22;20018;-80
2023/07/16 03:29:34;;;;;;;13.40;4.88;;;14.90;99.90;;;;;;6150318;23;20017;-80
2023/07/16 03:32:00;;;;;;;12.15;4.00;;;14.90;99.90;;;;;;6252343;22;20022;-80
2023/07/16 03:34:26;;;;;;;13.48;4.15;;;14.90;99.90;;;;;;6253029;22;20014;-80
2023/07/16 03:36:52;;;;;;;12.30;4.30;;;14.90;99.90;;;;;;6150546;23;20018;-81
2023/07/16 03:39:17;;;;;;;12.45;4.28;;;15.50;99.90;;;;;;6251857;22;20018;-80
2023/07/16 03:41:43;;;;;;;15.18;4.85;;;14.90;99.90;;;;;;6150244;23;20017;-81
2023/07/16 03:44:10;;;;;;;12.20;4.57;;;14.90;99.90;;;;;;6253825;22;20009;-80
2023/07/16 03:46:35;;;;;;;11.20;4.22;;;14.90;99.90;;;;;;6251778;22;20224;-80
2023/07/16 03:49:01;;;;;;;15.48;4.43;;;15.00;99.90;;;;;;6253079;22;20105;-80
2023/07/16 03:51:26;;;;;;;14.45;4.68;;;15.70;99.90;;;;;;6150848;23;20397;-80
2023/07/16 03:53:52;;;;;;;17.20;4.47;;;15.10;99.90;;;;;;6251267;22;20010;-80
2023/07/16 03:56:18;;;;;;;13.27;4.57;;;15.10;99.90;;;;;;6150749;23;20098;-80
2023/07/16 03:58:43;;;;;;;15.25;4.18;;;15.10;99.90;;;;;;6251753;22;20010;-80
2023/07/16 04:01:09;;;;;;;13.32;4.57;;;15.50;99.90;;;;;;6149768;23;20024;-80
2023/07/16 04:03:35;;;;;;;15.07;4.78;;;15.10;99.90;;;;;;6149277;23;20014;-80
2023/07/16 04:06:03;;;;;;;12.00;4.40;;;15.20;99.90;;;;;;6251026;22;20097;-81
2023/07/16 04:08:29;;;;;;;13.57;4.20;;;15.70;99.90;;;;;;6252170;22;20026;-81
2023/07/16 04:10:54;;;;;;;12.82;4.32;;;15.30;99.90;;;;;;6252952;22;20021;-80
2023/07/16 04:13:20;;;;;;;10.98;4.47;;;15.40;99.90;;;;;;6251798;22;20047;-80
2023/07/16 04:15:45;;;;;;;14.57;4.80;;;15.60;99.90;;;;;;6252217;22;20096;-80
2023/07/16 04:18:16;;;;;;;14.25;4.72;;;15.40;99.90;;;;;;6252982;22;20018;-80
2023/07/16 04:20:42;;;;;;;12.60;4.25;;;15.40;99.90;;;;;;6148518;23;20318;-80
2023/07/16 04:23:08;;;;;;;13.07;4.60;;;15.40;99.90;;;;;;6252798;22;20056;-81
2023/07/16 04:25:43;;;;;;;13.80;4.18;;;15.50;99.90;;;;;;6252057;22;20026;-80
2023/07/16 04:28:10;;;;;;;14.02;4.40;;;15.70;99.90;;;;;;6251074;22;20018;-80
2023/07/16 04:30:37;;;;;;;13.98;4.68;;;15.80;99.90;;;;;;6253656;22;20021;-80
2023/07/16 04:33:03;;;;;;;14.75;4.13;;;16.30;99.90;;;;;;6254497;22;20024;-80
2023/07/16 04:35:29;;;;;;;12.25;3.90;;;16.00;99.90;;;;;;6253030;22;20099;-80
2023/07/16 04:37:54;;;;;;;14.45;4.80;;;15.70;99.90;;;;;;6254625;22;20017;-81
2023/07/16 04:40:20;;;;;;;12.57;4.18;;;16.20;99.90;;;;;;6151860;23;20017;-80
2023/07/16 04:42:46;;;;;;;13.35;4.00;;;15.60;99.90;;;;;;6153454;23;20018;-81
2023/07/16 04:45:13;;;;;;;15.05;4.70;;;15.70;99.90;;;;;;6254719;22;20018;-81
2023/07/16 04:47:39;;;;;;;12.02;3.70;;;15.60;99.90;;;;;;6254381;22;20013;-80
2023/07/16 04:50:05;;;;;;;12.55;4.20;;;15.70;99.90;;;;;;6253409;22;20086;-81
2023/07/16 04:52:31;;;;;;;13.35;3.90;;;15.80;99.90;;;;;;6151453;23;20021;-80
2023/07/16 04:54:57;;;;;;;10.25;3.78;;;16.40;99.90;;;;;;6253992;22;20100;-80
2023/07/16 04:57:22;;;;;;;13.55;4.10;;;15.90;99.90;;;;;;6151469;23;20437;-80
2023/07/16 04:59:48;;;;;;;11.63;4.07;;;15.90;99.90;;;;;;6151265;23;20361;-80
2023/07/16 05:02:16;;;;;;;13.23;3.90;;;16.30;99.90;;;;;;6150949;22;20014;-80
2023/07/16 05:04:43;;;;;;;11.25;3.83;;;16.00;99.90;;;;;;6150683;23;20017;-81
2023/07/16 05:07:09;;;;;;;11.45;3.67;;;16.20;99.90;;;;;;6152050;22;20018;-80
2023/07/16 05:09:35;;;;;;;15.70;4.38;;;16.00;99.90;;;;;;6252751;22;20022;-81
2023/07/16 05:12:01;;;;;;;15.10;4.22;;;16.10;99.90;;;;;;6254278;22;20032;-80
2023/07/16 05:14:28;;;;;;;11.85;3.75;;;16.20;99.90;;;;;;6254175;22;20093;-81
2023/07/16 05:16:53;;;;;;;11.73;4.05;;;16.20;99.90;;;;;;6252578;22;20479;-81
2023/07/16 05:19:19;;;;;;;13.05;4.03;;;16.60;99.90;;;;;;6253362;22;20096;-81
2023/07/16 05:21:44;;;;;;;11.65;4.10;;;16.30;99.90;;;;;;6150775;23;20057;-82
2023/07/16 05:24:10;;;;;;;11.48;4.07;;;16.30;99.90;;;;;;6150196;23;20028;-81
2023/07/16 05:26:36;;;;;;;11.63;4.20;;;16.40;99.90;;;;;;6253880;22;20017;-80
2023/07/16 05:29:02;;;;;;;12.25;4.07;;;16.40;99.90;;;;;;6253344;22;20022;-79
2023/07/16 05:31:27;;;;;;;15.02;3.95;;;16.50;99.90;;;;;;6150104;23;20020;-78
2023/07/16 05:33:53;;;;;;;10.68;3.78;;;16.50;99.90;;;;;;6148909;22;20022;-79
2023/07/16 05:36:18;;;;;;;12.13;4.07;;;16.60;99.90;;;;;;6151217;23;20016;-79
2023/07/16 05:38:44;;;;;;;11.18;3.50;;;16.80;99.90;;;;;;6252921;22;20026;-79
2023/07/16 05:41:10;;;;;;;11.90;3.88;;;16.90;99.90;;;;;;6253690;22;20025;-79
2023/07/16 05:43:35;;;;;;;11.55;4.00;;;16.80;99.90;;;;;;6151141;23;20080;-80
2023/07/16 05:46:01;;;;;;;11.48;4.43;;;16.80;99.90;;;;;;6150738;22;20020;-79
2023/07/16 05:48:27;;;;;;;11.35;3.90;;;16.90;99.90;;;;;;6151356;23;20089;-80
2023/07/16 05:50:52;;;;;;;15.05;4.20;;;17.00;99.90;;;;;;6252108;22;20338;-80
2023/07/16 05:53:18;;;;;;;13.35;4.15;;;17.00;99.90;;;;;;6252905;22;20109;-80
2023/07/16 05:55:44;;;;;;;13.55;4.30;;;17.30;99.90;;;;;;6253015;22;20438;-80
2023/07/16 05:58:09;;;;;;;14.20;4.20;;;17.40;99.90;;;;;;6252127;22;20102;-80
2023/07/16 06:00:35;;;;;;;12.52;4.60;;;17.10;99.90;;;;;;6253114;22;20104;-80
2023/07/16 06:03:02;;;;;;;12.07;4.32;;;17.10;99.90;;;;;;6254255;22;20017;-80
2023/07/16 06:05:32;;;;;;;13.20;3.80;;;17.10;99.90;;;;;;6150062;23;20067;-79
2023/07/16 06:07:58;;;;;;;12.15;4.30;;;17.10;99.90;;;;;;6253697;22;20022;-80
2023/07/16 06:10:23;;;;;;;12.02;4.05;;;17.20;99.90;;;;;;6253613;22;20492;-80
2023/07/16 06:12:49;;;;;;;14.23;4.82;;;17.20;99.90;;;;;;6150122;23;20052;-80
2023/07/16 06:15:15;;;;;;;14.73;4.38;;;17.30;99.90;;;;;;6253490;22;20526;-80
2023/07/16 06:17:40;;;;;;;13.80;5.03;;;17.30;99.90;;;;;;6151227;23;20009;-80
2023/07/16 06:20:07;;;;;;;13.45;4.18;;;17.30;99.90;;;;;;6252670;22;20492;-80
2023/07/16 06:22:32;;;;;;;13.27;4.07;;;17.30;99.90;;;;;;6253161;22;20453;-80
2023/07/16 06:24:59;;;;;;;12.57;4.18;;;17.40;99.90;;;;;;6253258;22;20022;-80
2023/07/16 06:29:50;;;;;;;12.30;4.00;;;17.50;99.90;;;;;;6150280;22;20024;-80
2023/07/16 06:32:31;;;;;;;12.00;4.45;;;17.60;99.90;;;;;;6253318;22;20017;-80
2023/07/16 06:34:57;;;;;;;13.40;4.72;;;17.70;99.90;;;;;;6150433;22;20018;-81
2023/07/16 06:37:23;;;;;;;11.02;4.18;;;17.90;99.90;;;;;;6150548;23;20020;-80
2023/07/16 06:39:49;;;;;;;13.35;4.50;;;17.70;99.90;;;;;;6150811;23;20434;-80
2023/07/16 06:42:24;;;;;;;11.70;3.97;;;17.80;99.90;;;;;;6252484;22;20049;-80
2023/07/16 06:44:49;;;;;;;10.70;4.05;;;17.80;99.90;;;;;;6253150;22;20070;-80
2023/07/16 06:47:21;;;;;;;12.15;4.45;;;17.90;99.90;;;;;;6253408;22;20067;-81
2023/07/16 06:49:47;;;;;;;13.05;4.53;;;18.00;99.90;;;;;;6149682;23;20017;-80
2023/07/16 06:53:00;;;;;;;11.30;4.60;;;18.00;99.90;;;;;;6150696;23;20017;-80
2023/07/16 06:59:08;;;;;;;12.10;4.40;;;18.00;99.90;;;;;;6151227;23;20017;-80
2023/07/16 07:01:34;;;;;;;11.77;4.55;;;18.10;99.90;;;;;;6251961;22;20021;-80
2023/07/16 07:04:12;;;;;;;10.70;4.72;;;18.30;99.90;;;;;;6250657;22;20017;-80
2023/07/16 07:06:49;;;;;;;12.27;4.88;;;18.20;99.90;;;;;;6150681;23;20017;-80
2023/07/16 07:09:15;;;;;;;10.88;4.43;;;18.40;99.90;;;;;;6252026;22;20084;-80
2023/07/16 07:11:40;;;;;;;12.85;3.97;;;18.40;99.90;;;;;;6252637;22;20652;-80
2023/07/16 07:14:21;;;;;;;10.70;4.53;;;18.50;99.90;;;;;;6252637;22;20468;-80
2023/07/16 07:16:47;;;;;;;12.00;4.28;;;18.50;99.90;;;;;;6251750;22;20020;-80
2023/07/16 07:19:32;;;;;;;12.85;4.30;;;18.70;99.90;;;;;;6252973;22;20088;-79
2023/07/16 07:22:03;;;;;;;12.65;4.57;;;18.80;99.90;;;;;;6252912;22;20022;-79
2023/07/16 07:24:35;;;;;;;11.50;4.28;;;18.90;99.90;;;;;;6148823;23;20528;-79
2023/07/16 07:27:10;;;;;;;13.02;4.55;;;18.70;99.90;;;;;;6149269;22;20012;-80
2023/07/16 07:29:51;;;;;;;13.23;4.38;;;18.80;99.90;;;;;;6251968;22;20083;-81
2023/07/16 07:32:41;;;;;;;12.63;5.03;;;18.90;99.90;;;;;;6253270;22;20014;-81
2023/07/16 07:35:12;;;;;;;13.43;4.63;;;19.50;99.90;;;;;;6150226;22;20018;-80
2023/07/16 07:37:50;;;;;;;13.77;4.72;;;18.90;99.90;;;;;;6149721;22;20507;-80
2023/07/16 07:40:26;;;;;;;12.48;4.50;;;18.90;99.90;;;;;;6253032;22;20503;-80
2023/07/16 07:43:03;;;;;;;13.20;4.70;;;19.00;99.90;;;;;;6253059;22;20436;-80
2023/07/16 07:45:49;;;;;;;12.77;4.43;;;19.10;99.90;;;;;;6251674;22;20030;-80
2023/07/16 07:48:26;;;;;;;10.98;4.47;;;19.20;99.90;;;;;;6252456;22;20442;-79
2023/07/16 07:51:04;;;;;;;10.82;4.15;;;19.30;99.90;;;;;;6251718;22;20060;-79
2023/07/16 07:53:46;;;;;;;10.85;4.43;;;19.40;99.90;;;;;;6252387;22;20330;-80
2023/07/16 07:56:24;;;;;;;9.75;4.18;;;19.50;99.90;;;;;;6252642;22;20024;-79
2023/07/16 07:58:49;;;;;;;10.73;4.00;;;19.60;99.90;;;;;;6251934;22;20017;-79
2023/07/16 08:01:20;;;;;;;12.70;4.93;;;19.60;99.90;;;;;;6253132;22;20373;-79
2023/07/16 08:03:52;;;;;;;10.90;4.28;;;20.40;99.90;;;;;;6252573;22;20020;-79
2023/07/16 08:06:18;;;;;;;11.77;4.28;;;19.80;99.90;;;;;;6254094;22;20013;-79
2023/07/16 08:08:58;;;;;;;13.82;4.78;;;19.70;99.90;;;;;;6254417;22;20053;-79
2023/07/16 08:11:24;;;;;;;11.75;4.10;;;19.70;99.90;;;;;;6151469;23;20413;-79
2023/07/16 08:13:49;;;;;;;11.70;4.28;;;19.80;99.90;;;;;;6150461;23;20013;-79
2023/07/16 08:16:21;;;;;;;11.10;4.20;;;19.80;99.90;;;;;;6254793;22;20384;-80
2023/07/16 08:18:47;;;;;;;12.85;4.28;;;19.90;99.90;;;;;;6151418;23;20018;-79
2023/07/16 08:21:19;;;;;;;11.35;4.05;;;19.90;99.90;;;;;;6150847;23;20021;-79
2023/07/16 08:23:48;;;;;;;12.48;4.10;;;19.90;99.90;;;;;;6254447;22;20013;-79
2023/07/16 08:26:14;;;;;;;11.65;4.43;;;20.00;99.90;;;;;;6150615;23;20017;-79
2023/07/16 08:28:40;;;;;;;11.63;4.10;;;20.00;99.90;;;;;;6149787;23;20071;-80
2023/07/16 08:31:05;;;;;;;11.50;4.53;;;20.10;99.90;;;;;;6252789;22;20107;-79
2023/07/16 08:33:31;;;;;;;10.77;4.45;;;20.20;99.90;;;;;;6251771;22;20431;-80
2023/07/16 08:35:56;;;;;;;12.07;4.20;;;20.30;99.90;;;;;;6149866;23;20104;-78
2023/07/16 08:38:22;;;;;;;11.23;4.28;;;20.40;99.90;;;;;;6149268;23;20018;-81
2023/07/16 08:40:51;;;;;;;12.45;4.47;;;20.40;99.90;;;;;;6148736;22;20288;-79
2023/07/16 08:43:17;;;;;;;11.40;4.57;;;20.40;99.90;;;;;;6250629;22;20050;-79
2023/07/16 08:45:45;;;;;;;12.77;4.63;;;20.10;99.90;;;;;;6252482;22;20017;-79
2023/07/16 08:48:11;;;;;;;12.35;4.32;;;20.00;99.90;;;;;;6149927;23;20022;-79
2023/07/16 08:50:37;;;;;;;11.05;4.70;;;20.10;99.90;;;;;;6252289;22;20013;-80
2023/07/16 08:53:07;;;;;;;10.88;4.35;;;20.10;99.90;;;;;;6149961;22;20024;-80
2023/07/16 08:55:34;;;;;;;12.68;4.40;;;20.00;99.90;;;;;;6251662;22;20049;-79
2023/07/16 08:58:01;;;;;;;12.90;4.68;;;19.80;99.90;;;;;;6252343;22;20033;-79
2023/07/16 09:00:27;;;;;;;12.13;4.75;;;19.80;99.90;;;;;;6252931;22;20049;-80
2023/07/16 09:02:53;;;;;;;12.88;4.45;;;19.80;99.90;;;;;;6251076;22;20445;-79
2023/07/16 09:05:21;;;;;;;12.68;4.20;;;19.70;99.90;;;;;;6252753;22;20014;-79
2023/07/16 09:07:47;;;;;;;13.05;4.93;;;19.50;99.90;;;;;;6252545;22;20013;-79
2023/07/16 09:10:12;;;;;;;12.65;4.38;;;19.60;99.90;;;;;;6149199;23;20017;-79
2023/07/16 09:12:45;;;;;;;9.82;4.03;;;19.50;99.90;;;;;;6252057;22;20095;-78
2023/07/16 09:15:19;;;;;;;10.82;4.63;;;19.70;99.90;;;;;;6148919;23;20100;-79
2023/07/16 09:17:48;;;;;;;;;;;19.80;99.90;;;;;;6149896;23;20014;-78
2023/07/16 09:20:17;;;;;;;12.18;4.90;;;20.00;99.90;;;;;;6252627;22;19955;-78
2023/07/16 09:22:44;;;;;;;12.35;4.70;;;19.90;99.90;;;;;;6148586;23;20429;-79
2023/07/16 09:25:10;;;;;;;12.70;4.57;;;20.00;99.90;;;;;;6252498;22;20052;-79
2023/07/16 09:27:37;;;;;;;11.65;5.30;;;20.10;99.90;;;;;;6101884;22;1121710;-79
2023/07/16 09:30:07;;;;;;;11.48;4.30;;;20.30;99.90;;;;;;6253172;22;20070;-79
2023/07/16 09:32:34;;;;;;;11.23;4.68;;;20.50;99.90;;;;;;6253696;22;20318;-79
2023/07/16 09:34:59;;;;;;;11.43;4.50;;;20.70;99.90;;;;;;6253970;22;20100;-79
2023/07/16 09:37:27;;;;;;;13.75;5.18;;;20.70;99.90;;;;;;6253042;22;20049;-79
2023/07/16 09:39:53;;;;;;;13.27;5.03;;;20.60;99.90;;;;;;6253288;22;20029;-79
2023/07/16 09:42:20;;;;;;;12.20;4.25;;;20.60;99.90;;;;;;6151384;23;20026;-79
2023/07/16 09:44:46;;;;;;;11.43;4.63;;;20.70;99.90;;;;;;6252570;22;20018;-79
2023/07/16 09:49:45;;;;;;;11.95;4.68;;;20.60;99.90;;;;;;6276334;22;20339;-79
2023/07/16 09:52:32;;;;;;;11.55;4.65;;;20.50;99.90;;;;;;6275387;22;20348;-79
2023/07/16 09:55:03;;;;;;;12.80;5.07;;;20.40;99.90;;;;;;6276726;22;20376;-80
2023/07/16 09:57:32;;;;;;;14.18;5.10;;;20.30;99.90;;;;;;6275380;22;20101;-80
2023/07/16 10:00:00;;;;;;;12.50;5.18;;;19.90;99.90;;;;;;6248750;22;20020;-79
2023/07/16 10:02:26;;;;;;;12.68;5.05;;;20.00;99.90;;;;;;6249037;22;20008;-80
2023/07/16 10:04:55;;;;;;;12.68;4.97;;;20.10;99.90;;;;;;6247526;22;20450;-80
2023/07/16 10:07:23;;;;;;;12.27;4.97;;;20.40;99.90;;;;;;6249210;22;20015;-80
2023/07/16 10:09:58;;;;;;;13.18;4.93;;;20.80;99.90;;;;;;6248354;22;20019;-80
2023/07/16 10:12:25;;;;;;;12.18;5.00;;;20.90;99.90;;;;;;6247859;22;20015;-80
2023/07/16 10:14:53;;;;;;;13.13;4.82;;;21.30;99.90;;;;;;6248749;22;20372;-80
2023/07/16 10:17:26;;;;;;;10.55;4.40;;;21.70;99.90;;;;;;6275773;22;20011;-80
2023/07/16 10:20:04;;;;;;;11.68;4.82;;;21.40;99.90;;;;;;6245571;22;20043;-81
2023/07/16 10:22:41;;;;;;;11.93;3.97;;;21.30;99.90;;;;;;6248415;22;20047;-81
2023/07/16 10:25:21;;;;;;;14.20;5.63;;;21.10;99.90;;;;;;6247676;22;20004;-81
2023/07/16 10:27:49;;;;;;;12.27;4.85;;;21.20;99.90;;;;;;6247029;22;20019;-81
2023/07/16 10:30:15;;;;;;;12.57;5.00;;;21.10;99.90;;;;;;6276593;22;20022;-80
2023/07/16 10:32:41;;;;;;;11.10;4.95;;;21.10;99.90;;;;;;6246944;22;20016;-80
2023/07/16 10:35:08;;;;;;;12.27;4.78;;;21.10;99.90;;;;;;6276511;22;20004;-79
2023/07/16 10:37:34;;;;;;;13.18;4.60;;;21.00;99.90;;;;;;6248386;22;20015;-80
2023/07/16 10:40:03;;;;;;;10.30;4.80;;;20.80;99.90;;;;;;6248000;22;20022;-81
2023/07/16 10:42:29;;;;;;;11.52;4.70;;;20.50;99.90;;;;;;6275741;22;20014;-80
2023/07/16 10:44:58;;;;;;;10.70;4.65;;;20.40;99.90;;;;;;6275847;22;20102;-80
2023/07/16 10:47:24;;;;;;;11.50;4.80;;;20.30;99.90;;;;;;6249065;22;20484;-80
2023/07/16 10:49:54;;;;;;;13.18;5.07;;;20.20;99.90;;;;;;6249653;22;20090;-80
2023/07/16 10:52:21;;;;;;;12.77;4.97;;;20.00;99.90;;;;;;6277562;22;20016;-80
2023/07/16 10:54:47;;;;;;;12.57;4.97;;;20.00;99.90;;;;;;6248352;22;20011;-80
2023/07/16 10:57:16;;;;;;;12.50;4.63;;;19.90;99.90;;;;;;6248833;22;20027;-79
2023/07/16 10:59:44;;;;;;;14.25;5.43;;;20.20;99.90;;;;;;6249705;22;20016;-79
2023/07/16 11:02:14;;;;;;;11.43;4.70;;;20.50;99.90;;;;;;6251102;22;20035;-80
2023/07/16 11:04:40;;;;;;;12.82;4.78;;;20.60;99.90;;;;;;6250503;22;20019;-80
2023/07/16 11:07:08;;;;;;;11.10;4.63;;;20.90;99.90;;;;;;6277427;22;20051;-79
2023/07/16 11:09:41;;;;;;;12.38;4.80;;;21.20;99.90;;;;;;6247736;22;20077;-80
2023/07/16 11:12:14;;;;;;;10.10;4.55;;;21.50;99.90;;;;;;6276793;22;20033;-80
2023/07/16 11:14:45;;;;;;;11.40;5.10;;;21.90;99.90;;;;;;6246817;22;20054;-80
2023/07/16 11:17:12;;;;;;;11.05;4.50;;;21.80;99.90;;;;;;6248921;22;20024;-80
2023/07/16 11:19:38;;;;;;;11.55;4.80;;;21.90;99.90;;;;;;6275457;22;20026;-80
2023/07/16 11:22:18;;;;;;;10.20;4.47;;;21.90;99.90;;;;;;6247407;22;20015;-80
2023/07/16 11:24:48;;;;;;;11.18;4.80;;;21.80;99.90;;;;;;6248133;22;20027;-80
2023/07/16 11:27:16;;;;;;;12.65;5.15;;;21.70;99.90;;;;;;6248530;22;20026;-80
2023/07/16 11:29:50;;;;;;;11.32;5.13;;;21.50;99.90;;;;;;6247206;22;20011;-80
2023/07/16 11:32:32;;;;;;;;;;;21.30;99.90;;;;;;6273651;22;20018;-79
2023/07/16 11:34:59;;;;;;;12.48;4.93;;;20.90;99.90;;;;;;6274435;22;19915;-79
2023/07/16 11:37:26;;;;;;;10.45;4.95;;;20.70;99.90;;;;;;6246613;22;20095;-80
2023/07/16 11:40:00;;;;;;;13.25;5.40;;;20.70;99.90;;;;;;6274162;22;20331;-79
2023/07/16 11:42:36;;;;;;;11.40;5.18;;;20.80;99.90;;;;;;6249811;22;20469;-80
2023/07/16 11:45:03;;;;;;;12.23;5.22;;;21.20;99.90;;;;;;6248030;22;20042;-79
2023/07/16 11:47:28;;;;;;;11.40;4.90;;;21.40;99.90;;;;;;6276668;22;20015;-80
2023/07/16 11:49:55;;;;;;;11.85;4.72;;;21.40;99.90;;;;;;6249067;22;20085;-80
2023/07/16 11:52:23;;;;;;;13.85;5.10;;;21.30;99.90;;;;;;6250465;22;20109;-80
2023/07/16 11:54:49;;;;;;;10.07;4.80;;;21.20;99.90;;;;;;6250193;22;20841;-80
2023/07/16 11:57:15;;;;;;;11.32;4.60;;;21.10;99.90;;;;;;6276624;22;20023;-80
2023/07/16 11:59:41;;;;;;;12.07;5.00;;;20.90;99.90;;;;;;6250063;22;20012;-80
2023/07/16 12:02:10;;;;;;;11.55;4.63;;;20.80;99.90;;;;;;6250208;22;20313;-80
2023/07/16 12:04:35;;;;;;;12.82;4.97;;;20.80;99.90;;;;;;6249123;22;20020;-79
2023/07/16 12:07:02;;;;;;;11.88;5.20;;;20.80;99.90;;;;;;6250338;22;20169;-80
2023/07/16 12:09:28;;;;;;;12.52;4.82;;;20.70;99.90;;;;;;6249697;22;20065;-80
2023/07/16 12:11:54;;;;;;;11.25;4.57;;;20.60;99.90;;;;;;6249137;22;20336;-80
2023/07/16 12:14:20;;;;;;;11.50;4.95;;;20.50;99.90;;;;;;6250212;22;20019;-80
2023/07/16 12:16:45;;;;;;;12.73;4.88;;;20.60;99.90;;;;;;6249125;22;20012;-79
2023/07/16 12:19:11;;;;;;;13.00;5.10;;;20.60;99.90;;;;;;6275917;22;20034;-80
2023/07/16 12:21:37;;;;;;;12.63;5.13;;;20.60;99.90;;;;;;6277142;22;20016;-80
2023/07/16 12:24:03;;;;;;;14.50;5.05;;;20.60;99.90;;;;;;6250427;22;20054;-79
2023/07/16 12:26:28;;;;;;;12.30;5.05;;;20.60;99.90;;;;;;6248600;22;20360;-79
2023/07/16 12:28:55;;;;;;;13.63;5.20;;;20.50;99.90;;;;;;6274405;22;20016;-79
2023/07/16 12:31:21;;;;;;;11.55;4.82;;;20.60;99.90;;;;;;6248478;22;20026;-79
2023/07/16 12:33:47;;;;;;;11.88;5.05;;;20.70;99.90;;;;;;6247758;22;20016;-79
2023/07/16 12:36:13;;;;;;;11.52;5.00;;;20.90;99.90;;;;;;6274244;22;20458;-79
2023/07/16 12:38:40;;;;;;;13.02;4.85;;;21.10;99.90;;;;;;6275735;22;20016;-78
2023/07/16 12:41:06;;;;;;;10.05;4.30;;;21.10;99.90;;;;;;6274802;22;20439;-78
2023/07/16 12:43:33;;;;;;;11.93;4.68;;;21.10;99.90;;;;;;6248128;22;20454;-80
2023/07/16 12:46:05;;;;;;;10.93;4.35;;;21.10;99.90;;;;;;6276725;22;20026;-80
2023/07/16 12:48:31;;;;;;;12.77;4.85;;;21.10;99.90;;;;;;6247634;22;20012;-80
2023/07/16 12:50:57;;;;;;;13.95;4.70;;;21.20;99.90;;;;;;6248101;22;20023;-77
2023/07/16 12:53:24;;;;;;;11.50;4.95;;;21.20;99.90;;;;;;6247695;22;20023;-79